sensor_id;sensor_type;location;lat;lon;timestamp;pressure;altitude;pressure_sealevel;temperature;humidity
71903;BME280;59778;50.310;18.780;2023-05-14T00:12:43;99155.44;;;8.68;83.07
71903;BME280;59778;50.310;18.780;2023-05-14T00:28:04;99149.38;;;8.49;84.04
71903;BME280;59778;50.310;18.780;2023-05-14T00:43:25;99139.75;;;8.47;83.21
71903;BME280;59778;50.310;18.780;2023-05-14T00:58:46;99145.84;;;8.25;84.05
71903;BME280;59778;50.310;18.780;2023-05-14T01:14:21;99161.41;;;8.06;85.80
71903;BME280;59778;50.310;18.780;2023-05-14T01:29:52;99148.56;;;8.00;85.15
71903;BME280;59778;50.310;18.780;2023-05-14T01:45:14;99144.16;;;7.75;86.69
71903;BME280;59778;50.310;18.780;2023-05-14T02:00:36;99138.41;;;7.78;85.75
71903;BME280;59778;50.310;18.780;2023-05-14T02:15:58;99137.56;;;7.45;88.40
71903;BME280;59778;50.310;18.780;2023-05-14T02:31:19;99141.91;;;7.30;89.53
71903;BME280;59778;50.310;18.780;2023-05-14T02:46:41;99128.25;;;7.56;87.86
71903;BME280;59778;50.310;18.780;2023-05-14T03:02:03;99115.47;;;7.74;87.85
71903;BME280;59778;50.310;18.780;2023-05-14T03:17:25;99097.84;;;7.94;89.17
71903;BME280;59778;50.310;18.780;2023-05-14T03:32:46;99092.25;;;8.20;88.89
71903;BME280;59778;50.310;18.780;2023-05-14T03:48:08;99080.53;;;8.52;88.26
71903;BME280;59778;50.310;18.780;2023-05-14T04:03:29;99087.69;;;8.76;87.54
71903;BME280;59778;50.310;18.780;2023-05-14T04:18:50;99088.53;;;8.37;91.71
71903;BME280;59778;50.310;18.780;2023-05-14T04:34:12;99085.69;;;8.70;91.14
71903;BME280;59778;50.310;18.780;2023-05-14T04:49:33;99068.41;;;9.32;88.65
71903;BME280;59778;50.310;18.780;2023-05-14T05:04:54;99063.59;;;10.03;86.41
71903;BME280;59778;50.310;18.780;2023-05-14T05:20:16;99065.50;;;10.75;81.81
71903;BME280;59778;50.310;18.780;2023-05-14T05:35:37;99069.16;;;11.33;77.35
71903;BME280;59778;50.310;18.780;2023-05-14T05:50:58;99060.38;;;12.01;77.87
71903;BME280;59778;50.310;18.780;2023-05-14T06:06:20;99065.38;;;12.53;73.72
71903;BME280;59778;50.310;18.780;2023-05-14T06:21:41;99051.91;;;13.34;71.64
71903;BME280;59778;50.310;18.780;2023-05-14T06:37:04;99040.00;;;13.67;68.58
71903;BME280;59778;50.310;18.780;2023-05-14T06:52:25;99047.81;;;14.36;65.90
71903;BME280;59778;50.310;18.780;2023-05-14T07:07:47;99039.31;;;14.71;63.58
71903;BME280;59778;50.310;18.780;2023-05-14T07:23:08;99054.88;;;15.66;61.10
71903;BME280;59778;50.310;18.780;2023-05-14T07:38:29;99055.50;;;15.68;58.30
71903;BME280;59778;50.310;18.780;2023-05-14T07:53:51;99033.88;;;16.59;57.00
71903;BME280;59778;50.310;18.780;2023-05-14T08:09:12;99014.38;;;17.33;56.16
71903;BME280;59778;50.310;18.780;2023-05-14T08:24:34;98986.84;;;17.51;52.23
71903;BME280;59778;50.310;18.780;2023-05-14T08:39:55;98967.50;;;18.22;55.14
71903;BME280;59778;50.310;18.780;2023-05-14T08:55:16;98962.81;;;18.69;50.57
71903;BME280;59778;50.310;18.780;2023-05-14T09:10:38;98942.00;;;18.62;49.44
71903;BME280;59778;50.310;18.780;2023-05-14T09:26:03;98948.59;;;19.29;46.10
71903;BME280;59778;50.310;18.780;2023-05-14T09:41:27;98945.69;;;19.81;49.65
71903;BME280;59778;50.310;18.780;2023-05-14T09:56:48;98921.63;;;19.93;44.77
71903;BME280;59778;50.310;18.780;2023-05-14T10:12:10;98899.56;;;20.48;43.15
71903;BME280;59778;50.310;18.780;2023-05-14T10:27:32;98871.84;;;21.35;40.43
71903;BME280;59778;50.310;18.780;2023-05-14T10:42:54;98851.25;;;21.47;41.46
71903;BME280;59778;50.310;18.780;2023-05-14T10:58:19;98849.66;;;21.25;42.51
71903;BME280;59778;50.310;18.780;2023-05-14T11:13:44;98847.44;;;20.73;41.07
71903;BME280;59778;50.310;18.780;2023-05-14T11:29:05;98829.88;;;20.57;40.16
71903;BME280;59778;50.310;18.780;2023-05-14T11:44:27;98827.28;;;20.51;40.65
71903;BME280;59778;50.310;18.780;2023-05-14T11:59:54;98800.84;;;21.08;43.19
71903;BME280;59778;50.310;18.780;2023-05-14T12:15:18;98787.19;;;20.65;42.17
71903;BME280;59778;50.310;18.780;2023-05-14T12:30:41;98767.50;;;20.35;39.91
71903;BME280;59778;50.310;18.780;2023-05-14T12:46:03;98744.78;;;20.28;43.07
71903;BME280;59778;50.310;18.780;2023-05-14T13:01:24;98721.59;;;20.50;41.31
71903;BME280;59778;50.310;18.780;2023-05-14T13:16:45;98718.53;;;20.25;37.88
71903;BME280;59778;50.310;18.780;2023-05-14T13:32:09;98695.13;;;20.49;37.64
71903;BME280;59778;50.310;18.780;2023-05-14T13:47:31;98679.28;;;20.40;38.34
71903;BME280;59778;50.310;18.780;2023-05-14T14:02:53;98638.09;;;20.60;38.78
71903;BME280;59778;50.310;18.780;2023-05-14T14:18:17;98629.91;;;20.70;39.69
71903;BME280;59778;50.310;18.780;2023-05-14T14:33:39;98601.00;;;20.46;41.60
71903;BME280;59778;50.310;18.780;2023-05-14T14:49:00;98576.69;;;20.16;42.43
71903;BME280;59778;50.310;18.780;2023-05-14T15:04:22;98537.72;;;20.07;43.89
71903;BME280;59778;50.310;18.780;2023-05-14T15:19:43;98535.34;;;19.89;43.41
71903;BME280;59778;50.310;18.780;2023-05-14T15:35:05;98527.81;;;19.80;46.47
71903;BME280;59778;50.310;18.780;2023-05-14T15:50:29;98525.16;;;19.41;45.50
71903;BME280;59778;50.310;18.780;2023-05-14T16:05:51;98488.44;;;19.09;47.69
71903;BME280;59778;50.310;18.780;2023-05-14T16:21:12;98482.09;;;19.08;46.03
71903;BME280;59778;50.310;18.780;2023-05-14T16:36:37;98472.75;;;18.88;45.65
71903;BME280;59778;50.310;18.780;2023-05-14T16:51:58;98464.88;;;18.74;47.87
71903;BME280;59778;50.310;18.780;2023-05-14T17:07:19;98455.28;;;18.77;46.68
71903;BME280;59778;50.310;18.780;2023-05-14T17:22:41;98432.44;;;18.55;48.26
71903;BME280;59778;50.310;18.780;2023-05-14T17:38:02;98426.94;;;18.38;49.25
71903;BME280;59778;50.310;18.780;2023-05-14T17:53:23;98447.75;;;18.12;52.54
71903;BME280;59778;50.310;18.780;2023-05-14T18:08:44;98516.75;;;16.04;70.63
71903;BME280;59778;50.310;18.780;2023-05-14T18:24:06;98519.28;;;15.05;82.60
71903;BME280;59778;50.310;18.780;2023-05-14T18:39:28;98519.97;;;15.30;81.43
71903;BME280;59778;50.310;18.780;2023-05-14T18:54:49;98509.38;;;14.86;92.22
71903;BME280;59778;50.310;18.780;2023-05-14T19:10:11;98515.00;;;14.54;96.80
71903;BME280;59778;50.310;18.780;2023-05-14T19:25:32;98510.31;;;14.43;98.29
71903;BME280;59778;50.310;18.780;2023-05-14T19:40:55;98527.44;;;14.50;97.64
71903;BME280;59778;50.310;18.780;2023-05-14T19:56:17;98544.84;;;14.38;100.00
71903;BME280;59778;50.310;18.780;2023-05-14T20:11:41;98529.94;;;14.09;100.00
71903;BME280;59778;50.310;18.780;2023-05-14T20:27:03;98502.56;;;13.91;100.00
71903;BME280;59778;50.310;18.780;2023-05-14T20:42:25;98434.06;;;13.49;100.00
71903;BME280;59778;50.310;18.780;2023-05-14T20:58:10;98386.63;;;13.26;100.00
71903;BME280;59778;50.310;18.780;2023-05-14T21:13:32;98334.03;;;13.18;100.00
71903;BME280;59778;50.310;18.780;2023-05-14T21:28:53;98305.75;;;13.13;100.00
71903;BME280;59778;50.310;18.780;2023-05-14T21:44:14;98304.19;;;13.23;100.00
71903;BME280;59778;50.310;18.780;2023-05-14T21:59:36;98265.19;;;13.23;100.00
71903;BME280;59778;50.310;18.780;2023-05-14T22:14:59;98252.44;;;13.17;100.00
71903;BME280;59778;50.310;18.780;2023-05-14T22:30:20;98225.72;;;13.01;100.00
71903;BME280;59778;50.310;18.780;2023-05-14T22:45:42;98228.63;;;13.06;100.00
71903;BME280;59778;50.310;18.780;2023-05-14T23:01:03;98176.78;;;13.12;100.00
71903;BME280;59778;50.310;18.780;2023-05-14T23:16:25;98145.94;;;13.12;100.00
71903;BME280;59778;50.310;18.780;2023-05-14T23:31:46;98123.91;;;13.13;100.00
71903;BME280;59778;50.310;18.780;2023-05-14T23:47:07;98119.41;;;13.01;100.00
